Overview Statistics Trail Chart Weather Telemetry Raw packets
 

This is the latest recevied weather packets stored in our database for station/object HB9BVR. If no packets are shown the sender has not sent any weather packets the latest 10 day(s).

<< 1 2 3 4 >>
Time Temp. Humidity Pressure Rain* Wind** Luminosity Snow
1788590020 20° C 64% - 0 mm - - -
1788549543 25° C 51% - 0 mm - - -
1788547719 25.56° C 48% - 0 mm - - -
1788546819 26.11° C 48% - 0 mm - - -
1788542323 28.89° C 43% - 0 mm - - -
1788540522 29.44° C 39% - 0 mm - - -
1788538722 30.56° C 38% - 0 mm - - -
1788522518 28.33° C 43% - 0 mm - - -
1788517121 26.67° C 41% - 0 mm - - -
1788510820 23.33° C 52% - 0 mm - - -
1788507219 21.67° C 61% - 0 mm - - -
1788504518 18.89° C 63% - 0 mm - - -
1788500917 17.22° C 68% - 0 mm - - -
1788499117 17.22° C 69% - 0 mm - - -
1788494621 17.78° C 64% - 0 mm - - -
1788466718 21.11° C 49% - 0 mm - - -
1788455015 26.67° C 36% - 0 mm - - -
1788450519 27.78° C 35% - 0 mm - - -
1788427118 24.44° C 53% - 0 mm - - -
1788423517 22.78° C 62% - 0 mm - - -
1788417216 17.22° C 74% - 0 mm - - -
1788409118 17.22° C 72% - 0 mm - - -
1788404617 17.78° C 70% - 0 mm - - -
1788389316 18.33° C 68% - 0 mm - - -
1788385717 19.44° C 65% - 0 mm - - -

* Rain latest hour (hover to see other rain measurements)
** Current wind speed in m/s (hover to see current wind gust speed)